KUIN/UIN METAR and TAF weather

Enter ICAO airport designator
Station Type Date Time Source
KUIN METAR 2020/05/29 19:54 UTC NOAA

KUIN 291954Z AUTO 31016G23KT 10SM CLR 23/09 A3009 RMK AO2 PK WND 30028/1859 SLP182 T02330089


Station Type Date Time Source
KUIN Decoded METAR 2020/05/29 19:54 UTC NOAA

QUINCY MUNI. BALDWIN FIELD, IL, United States (KUIN) 39-56N 091-12W
May 29, 2020 - 03:54 PM EDT / 2020.05.29 1954 UTC
Wind: from the NW (310 degrees) at 18 MPH (16 KT) gusting to 26 MPH (23 KT):0
Visibility: 10 mile(s):0
Sky conditions: clear
Temperature: 73.9 F (23.3 C)
Dew Point: 48.0 F (8.9 C)
Relative Humidity: 39%
Pressure (altimeter): 30.09 in. Hg (1018 hPa)
ob: KUIN 291954Z AUTO 31016G23KT 10SM CLR 23/09 A3009 RMK AO2 PK WND 30028/1859 SLP182 T02330089
cycle: 20

Station Type Date Time Source
KUIN TAF 2020/05/29 18:24 UTC NOAA

TAF KUIN 291720Z 2918/3018 32014G24KT P6SM SCT040
FM300100 33006KT P6SM SKC
FM301600 35008KT P6SM BKN120

Example: see airport list